New Bethlehem, Pennsylvania
Current Conditions -  °F | °C
As of 11:53 PM on Sunday 19 Oct 2014 (Local Time) from KDUJ Reporting Station
Clear Clear  
Wind Chill: 39°   Ceiling: Unl
Heat Index: 39°   Visibility: 10mi
Dew Point: 31°   Wind: 3mph
Humidity: 73%   Direction: 210°SSW
Pressure: 30.04"   Gusts: NA
Location:  41°N, 79.33°W
Report Text: KDUJ 200353Z AUTO 21003KT 10SM CLR 04/M01 A3004 RMK AO2 SLP181 T00391006
Loading
Personal Weather Stations






























Interactive Weather Map
Tropical Storm Tracking
New forecast layout! Learn more

10-Day Weather Forecast

Advertisements
Track Severe Weather on mobile